createdAt,value
2022-12-16T00:00:20.142Z,53.08
2022-12-16T00:03:04.751Z,51.53
2022-12-16T00:06:03.808Z,50.05
2022-12-16T00:11:56.603Z,56.13
2022-12-16T00:14:28.762Z,54.63
2022-12-16T00:23:30.005Z,50.28
2022-12-16T00:40:40.763Z,43.85
2022-12-16T00:43:08.513Z,54.38
2022-12-16T00:45:38.007Z,50.33
2022-12-16T00:48:13.945Z,51.53
2022-12-16T00:53:39.455Z,44.13
2022-12-16T00:56:15.031Z,53.67
2022-12-16T00:58:44.129Z,54.22
2022-12-16T01:01:17.467Z,48.42
2022-12-16T01:03:51.413Z,53.83
2022-12-16T01:06:19.921Z,52.55
2022-12-16T01:08:50.046Z,48.55
2022-12-16T01:11:18.618Z,53.38
2022-12-16T01:13:47.090Z,46.05
2022-12-16T01:16:15.740Z,46.00
2022-12-16T01:18:45.769Z,48.72
2022-12-16T01:21:15.022Z,41.97
2022-12-16T01:23:42.324Z,41.95
2022-12-16T01:26:14.698Z,42.15
2022-12-16T01:28:55.300Z,44.38
2022-12-16T01:31:25.439Z,44.13
2022-12-16T01:33:52.808Z,48.72
2022-12-16T01:36:20.796Z,44.58
2022-12-16T01:38:48.365Z,46.15
2022-12-16T01:41:16.477Z,40.92
2022-12-16T01:43:44.539Z,43.65
2022-12-16T01:46:20.487Z,47.67
2022-12-16T01:49:00.149Z,49.47
2022-12-16T01:51:31.495Z,40.13
2022-12-16T01:54:19.830Z,49.50
2022-12-16T01:56:52.341Z,46.60
2022-12-16T01:59:20.576Z,42.55
2022-12-16T02:01:50.291Z,45.20
2022-12-16T02:04:17.784Z,43.15
2022-12-16T02:06:44.604Z,45.30
2022-12-16T02:09:13.707Z,41.38
2022-12-16T02:11:53.566Z,39.45
2022-12-16T02:14:31.150Z,40.80
2022-12-16T02:17:18.523Z,45.45
2022-12-16T02:19:54.875Z,46.78
2022-12-16T02:22:52.422Z,45.67
2022-12-16T02:25:31.351Z,42.75
2022-12-16T02:28:09.953Z,45.65
2022-12-16T02:30:39.856Z,49.58
2022-12-16T02:33:32.588Z,44.90
2022-12-16T02:36:03.395Z,45.83
2022-12-16T02:38:42.881Z,42.58
2022-12-16T02:41:24.117Z,42.47
2022-12-16T02:43:55.330Z,50.10
2022-12-16T02:46:26.165Z,44.47
2022-12-16T02:48:54.840Z,49.05
2022-12-16T02:51:25.465Z,42.03
2022-12-16T02:53:53.628Z,47.95
2022-12-16T02:56:45.104Z,46.08
2022-12-16T02:59:30.724Z,43.75
2022-12-16T03:02:27.993Z,43.47
2022-12-16T03:04:58.575Z,48.08
2022-12-16T03:07:26.851Z,47.13
2022-12-16T03:09:54.183Z,46.13
2022-12-16T03:12:22.112Z,50.95
2022-12-16T03:14:51.654Z,43.78
2022-12-16T03:17:19.666Z,44.50
2022-12-16T03:19:57.412Z,41.60
2022-12-16T03:22:28.266Z,48.85
2022-12-16T03:24:56.166Z,47.33
2022-12-16T03:27:32.337Z,49.97
2022-12-16T03:29:59.031Z,42.15
2022-12-16T03:32:49.071Z,50.70
2022-12-16T03:35:19.843Z,51.63
2022-12-16T03:37:48.725Z,43.42
2022-12-16T03:40:16.112Z,42.83
2022-12-16T03:42:43.500Z,52.03
2022-12-16T03:45:14.162Z,46.30
2022-12-16T03:47:41.061Z,45.95
2022-12-16T03:50:08.384Z,47.05
2022-12-16T03:52:35.295Z,45.88
2022-12-16T03:55:02.352Z,47.50
2022-12-16T03:57:29.119Z,45.75
2022-12-16T03:59:55.859Z,40.63
2022-12-16T04:02:22.836Z,40.10
2022-12-16T04:04:50.416Z,34.88
2022-12-16T04:07:24.838Z,37.03
2022-12-16T04:09:52.771Z,38.38
2022-12-16T04:12:39.153Z,45.28
2022-12-16T04:15:26.153Z,36.30
2022-12-16T04:18:11.586Z,37.58
2022-12-16T04:20:59.533Z,38.75
2022-12-16T04:23:45.307Z,41.72
2022-12-16T04:26:12.548Z,41.65
2022-12-16T04:28:39.919Z,39.75
2022-12-16T04:31:06.870Z,47.42
2022-12-16T04:33:52.086Z,55.55
2022-12-16T04:36:37.995Z,51.55
2022-12-16T04:39:23.949Z,47.33
2022-12-16T04:42:13.540Z,51.63
2022-12-16T04:44:59.588Z,54.90
2022-12-16T04:47:45.428Z,53.00
2022-12-16T04:50:30.967Z,49.90
2022-12-16T04:53:16.434Z,52.60
2022-12-16T04:56:04.764Z,50.08
2022-12-16T04:58:50.335Z,56.38
2022-12-16T05:01:35.858Z,52.10
2022-12-16T05:04:21.581Z,48.55
2022-12-16T05:07:07.066Z,47.78
2022-12-16T05:09:52.353Z,48.95
2022-12-16T05:12:37.627Z,49.13
2022-12-16T05:15:23.513Z,50.20
2022-12-16T05:18:11.635Z,44.17
2022-12-16T05:20:56.972Z,52.67
2022-12-16T05:23:42.591Z,44.20
2022-12-16T05:26:27.872Z,43.15
2022-12-16T05:29:13.365Z,45.58
2022-12-16T05:31:58.811Z,47.85
2022-12-16T05:34:44.151Z,51.03
2022-12-16T05:37:29.684Z,45.22
2022-12-16T05:40:15.054Z,47.55
2022-12-16T05:43:03.767Z,51.05
2022-12-16T05:45:49.372Z,53.25
2022-12-16T05:48:34.675Z,55.10
2022-12-16T05:51:19.957Z,50.22
2022-12-16T05:54:05.324Z,47.88
2022-12-16T05:56:50.636Z,51.42
2022-12-16T05:59:36.058Z,48.92
2022-12-16T06:02:21.447Z,46.95
2022-12-16T06:05:06.980Z,49.88
2022-12-16T06:07:52.296Z,45.03
2022-12-16T06:10:37.740Z,49.17
2022-12-16T06:13:23.165Z,53.22
2022-12-16T06:16:20.009Z,48.95
2022-12-16T06:19:05.321Z,49.15
2022-12-16T06:21:50.612Z,49.65
2022-12-16T06:27:38.219Z,54.08
2022-12-16T06:30:24.129Z,53.60
2022-12-16T06:33:10.099Z,48.08
2022-12-16T06:35:55.517Z,49.10
2022-12-16T06:38:41.944Z,46.42
2022-12-16T06:41:27.102Z,41.80
2022-12-16T06:44:13.457Z,47.67
2022-12-16T06:46:58.969Z,50.30
2022-12-16T06:49:44.333Z,55.50
2022-12-16T06:52:29.866Z,53.60
2022-12-16T06:55:15.293Z,59.97
2022-12-16T06:58:00.885Z,52.58
2022-12-16T07:00:48.537Z,47.60
2022-12-16T07:03:36.045Z,49.20
2022-12-16T07:06:21.681Z,44.10
2022-12-16T07:09:09.904Z,48.30
2022-12-16T07:11:55.478Z,56.00
2022-12-16T07:14:41.422Z,40.28
2022-12-16T07:17:26.767Z,35.63
2022-12-16T07:20:37.358Z,38.60
2022-12-16T07:23:25.018Z,38.35
2022-12-16T07:26:10.329Z,33.47
2022-12-16T07:28:55.865Z,36.38
2022-12-16T07:31:40.965Z,32.88
2022-12-16T07:34:26.491Z,32.95
2022-12-16T07:37:11.927Z,31.13
2022-12-16T07:39:57.229Z,32.67
2022-12-16T07:42:43.462Z,29.73
2022-12-16T07:45:29.637Z,34.63
2022-12-16T07:48:15.112Z,32.33
2022-12-16T07:51:01.538Z,32.80
2022-12-16T07:53:52.261Z,34.55
2022-12-16T07:56:37.703Z,31.77
2022-12-16T07:59:23.244Z,34.05
2022-12-16T08:02:08.910Z,39.20
2022-12-16T08:04:54.568Z,34.85
2022-12-16T08:07:41.671Z,36.47
2022-12-16T08:10:27.778Z,37.63
2022-12-16T08:13:25.858Z,30.98
2022-12-16T08:16:11.809Z,34.35
2022-12-16T08:18:57.495Z,34.63
2022-12-16T08:21:43.024Z,39.85
2022-12-16T08:24:28.446Z,30.80
2022-12-16T08:27:13.826Z,34.65
2022-12-16T08:29:58.889Z,32.03
2022-12-16T08:32:44.246Z,27.15
2022-12-16T08:35:29.393Z,25.58
2022-12-16T08:38:15.611Z,30.65
2022-12-16T08:41:02.054Z,34.85
2022-12-16T08:43:52.596Z,33.28
2022-12-16T08:46:37.910Z,42.25
2022-12-16T08:49:24.118Z,35.33
2022-12-16T08:52:09.758Z,35.42
2022-12-16T08:54:55.307Z,36.22
2022-12-16T08:57:41.850Z,39.47
2022-12-16T09:00:27.685Z,33.78
2022-12-16T09:03:17.206Z,35.72
2022-12-16T09:06:03.350Z,37.72
2022-12-16T09:08:52.483Z,43.78
2022-12-16T09:11:38.209Z,39.20
2022-12-16T09:14:23.783Z,34.55
2022-12-16T09:17:09.134Z,40.35
2022-12-16T09:19:55.340Z,39.83
2022-12-16T09:22:41.465Z,37.05
2022-12-16T09:25:28.428Z,38.15
2022-12-16T09:28:13.962Z,40.90
2022-12-16T09:30:59.221Z,42.83
2022-12-16T09:33:44.965Z,35.17
2022-12-16T09:36:30.555Z,37.13
2022-12-16T09:39:15.819Z,33.67
2022-12-16T09:42:20.917Z,34.85
2022-12-16T09:45:21.925Z,30.48
2022-12-16T09:48:15.924Z,33.40
2022-12-16T09:51:01.788Z,26.85
2022-12-16T09:53:51.066Z,28.50
2022-12-16T09:56:40.056Z,32.58
2022-12-16T09:59:30.733Z,31.60
2022-12-16T10:02:16.376Z,33.35
2022-12-16T10:05:04.768Z,30.38
2022-12-16T10:07:53.392Z,29.40
2022-12-16T10:11:04.839Z,29.38
2022-12-16T10:13:59.503Z,27.95
2022-12-16T10:17:07.906Z,27.58
2022-12-16T10:20:19.273Z,27.90
2022-12-16T10:23:24.408Z,26.33
2022-12-16T10:26:34.744Z,24.13
2022-12-16T10:29:29.715Z,23.10
2022-12-16T10:32:15.353Z,23.80
2022-12-16T10:35:02.014Z,25.40
2022-12-16T10:37:54.342Z,26.58
2022-12-16T10:40:45.765Z,29.27
2022-12-16T10:43:40.744Z,28.60
2022-12-16T10:46:33.978Z,28.80
2022-12-16T10:49:20.014Z,25.48
2022-12-16T10:52:09.311Z,28.92
2022-12-16T10:55:01.933Z,27.23
2022-12-16T10:57:47.326Z,26.67
2022-12-16T11:00:38.336Z,25.63
2022-12-16T11:03:38.994Z,29.05
2022-12-16T11:06:25.648Z,29.85
2022-12-16T11:09:11.174Z,27.30
2022-12-16T11:11:56.474Z,25.77
2022-12-16T11:15:05.819Z,32.83
2022-12-16T11:17:53.286Z,30.35
2022-12-16T11:20:40.290Z,25.70
2022-12-16T11:23:32.941Z,30.00
2022-12-16T11:26:36.675Z,26.92
2022-12-16T11:29:24.355Z,31.38
2022-12-16T11:32:26.425Z,25.13
2022-12-16T11:56:16.035Z,25.50
2022-12-16T11:59:07.471Z,33.40
2022-12-16T12:02:06.539Z,27.98
2022-12-16T12:04:51.773Z,27.90
2022-12-16T12:07:45.264Z,27.13
2022-12-16T12:21:22.596Z,27.98
2022-12-16T12:24:29.946Z,32.35
2022-12-16T12:27:33.815Z,31.38
2022-12-16T12:30:45.598Z,34.53
2022-12-16T12:33:31.260Z,28.85
2022-12-16T12:36:36.427Z,34.25
2022-12-16T13:18:38.417Z,27.90
2022-12-16T13:21:43.933Z,30.08
2022-12-16T13:24:42.309Z,28.58
2022-12-16T13:27:33.296Z,31.52
2022-12-16T13:30:31.182Z,29.25
2022-12-16T13:33:40.164Z,35.45
2022-12-16T13:36:26.605Z,27.40
2022-12-16T13:39:16.570Z,30.95
2022-12-16T13:42:01.804Z,29.17
2022-12-16T13:45:02.663Z,27.92
2022-12-16T13:48:14.201Z,29.17
2022-12-16T13:51:01.837Z,29.75
2022-12-16T13:53:50.523Z,29.05
2022-12-16T13:56:43.374Z,26.80
2022-12-16T13:59:41.009Z,27.73
2022-12-16T14:02:42.302Z,29.90
2022-12-16T14:05:37.081Z,23.35
2022-12-16T14:08:24.096Z,28.45
2022-12-16T14:11:18.157Z,21.55
2022-12-16T14:14:19.883Z,26.33
2022-12-16T14:17:16.486Z,28.00
2022-12-16T14:20:20.871Z,29.05
2022-12-16T14:23:55.714Z,28.75
2022-12-16T14:26:37.781Z,24.05
2022-12-16T14:29:36.863Z,25.58
2022-12-16T14:32:39.421Z,21.45
2022-12-16T14:35:32.254Z,20.77
2022-12-16T14:38:17.659Z,22.17
2022-12-16T14:41:09.712Z,23.55
2022-12-16T14:43:55.533Z,21.80
2022-12-16T14:46:50.308Z,25.30
2022-12-16T14:49:41.439Z,19.85
2022-12-16T14:52:42.010Z,20.27
2022-12-16T14:55:33.586Z,20.50
2022-12-16T14:58:35.131Z,19.05
2022-12-16T15:01:37.862Z,18.13
2022-12-16T15:04:27.872Z,24.42
2022-12-16T15:07:14.043Z,22.77
2022-12-16T15:10:05.812Z,22.23
2022-12-16T15:12:54.835Z,21.95
2022-12-16T15:16:04.003Z,21.75
2022-12-16T15:18:51.347Z,18.67
2022-12-16T15:21:36.900Z,22.67
2022-12-16T15:24:27.671Z,22.65
2022-12-16T15:27:38.374Z,22.67
2022-12-16T15:30:51.965Z,19.70
2022-12-16T15:33:39.472Z,23.00
2022-12-16T15:36:25.363Z,23.77
2022-12-16T15:39:10.830Z,23.80
2022-12-16T15:41:57.197Z,22.77
2022-12-16T15:44:47.207Z,25.00
2022-12-16T15:47:53.919Z,25.33
2022-12-16T15:50:49.062Z,23.20
2022-12-16T15:53:54.654Z,24.40
2022-12-16T15:57:04.681Z,27.40
2022-12-16T15:59:53.057Z,23.15
2022-12-16T16:02:48.613Z,25.25
2022-12-16T16:05:39.240Z,23.10
2022-12-16T16:08:24.823Z,27.40
2022-12-16T16:11:10.298Z,21.90
2022-12-16T16:13:59.349Z,26.70
2022-12-16T16:16:49.804Z,21.83
2022-12-16T16:19:45.269Z,27.65
2022-12-16T16:22:32.184Z,26.85
2022-12-16T16:25:17.443Z,28.00
2022-12-16T16:28:03.206Z,23.83
2022-12-16T16:30:48.834Z,20.13
2022-12-16T16:33:34.452Z,25.30
2022-12-16T16:36:20.100Z,27.90
2022-12-16T16:39:05.516Z,27.70
2022-12-16T16:41:51.003Z,24.08
2022-12-16T16:44:36.481Z,29.13
2022-12-16T16:47:22.038Z,28.83
2022-12-16T16:50:09.207Z,28.08
2022-12-16T16:52:54.635Z,24.73
2022-12-16T16:55:49.405Z,23.05
2022-12-16T16:58:40.413Z,23.95
2022-12-16T17:01:30.847Z,27.42
2022-12-16T17:04:16.782Z,28.80
2022-12-16T17:07:02.503Z,25.67
2022-12-16T17:09:47.807Z,33.47
2022-12-16T17:12:41.370Z,30.33
2022-12-16T17:15:41.608Z,30.95
2022-12-16T17:18:27.187Z,27.10
2022-12-16T17:21:12.980Z,28.75
2022-12-16T17:23:58.431Z,29.27
2022-12-16T17:26:44.636Z,31.00
2022-12-16T17:29:42.802Z,26.30
2022-12-16T17:32:29.031Z,30.92
2022-12-16T17:35:17.498Z,27.73
2022-12-16T17:38:03.408Z,32.60
2022-12-16T17:40:48.724Z,29.40
2022-12-16T17:43:34.476Z,34.33
2022-12-16T17:46:25.780Z,34.97
2022-12-16T17:49:12.442Z,36.03
2022-12-16T17:51:58.725Z,36.58
2022-12-16T17:54:44.545Z,33.83
2022-12-16T17:57:45.495Z,36.80
2022-12-16T18:00:31.351Z,34.05
2022-12-16T18:03:17.689Z,32.22
2022-12-16T18:06:03.842Z,33.08
2022-12-16T18:08:51.143Z,31.80
2022-12-16T18:11:38.945Z,33.63
2022-12-16T18:14:24.581Z,33.28
2022-12-16T18:17:09.963Z,32.30
2022-12-16T18:19:55.393Z,34.78
2022-12-16T18:22:40.759Z,29.58
2022-12-16T18:25:26.217Z,31.58
2022-12-16T18:28:11.585Z,33.67
2022-12-16T18:30:56.847Z,34.05
2022-12-16T18:33:42.365Z,35.00
2022-12-16T18:36:27.862Z,34.38
2022-12-16T18:39:13.203Z,32.17
2022-12-16T18:42:05.833Z,34.00
2022-12-16T18:44:56.191Z,38.28
2022-12-16T18:47:55.569Z,32.83
2022-12-16T18:50:40.715Z,35.00
2022-12-16T18:53:26.017Z,37.47
2022-12-16T18:56:37.602Z,36.97
2022-12-16T18:59:22.868Z,37.28
2022-12-16T19:02:08.376Z,36.63
2022-12-16T19:04:53.805Z,34.90
2022-12-16T19:07:39.038Z,35.40
2022-12-16T19:10:24.744Z,35.38
2022-12-16T19:13:16.773Z,42.63
2022-12-16T19:16:11.310Z,44.20
2022-12-16T19:18:56.680Z,33.38
2022-12-16T19:21:44.528Z,37.72
2022-12-16T19:24:32.318Z,35.78
2022-12-16T19:27:17.632Z,42.10
2022-12-16T19:30:03.503Z,35.95
2022-12-16T19:32:48.968Z,36.60
2022-12-16T19:35:34.277Z,37.15
2022-12-16T19:38:19.696Z,45.17
2022-12-16T19:41:10.378Z,38.85
2022-12-16T19:43:58.787Z,40.75
2022-12-16T19:46:48.834Z,43.20
2022-12-16T19:49:54.797Z,41.00
2022-12-16T19:52:41.476Z,32.40
2022-12-16T19:55:26.736Z,40.90
2022-12-16T19:58:12.146Z,37.00
2022-12-16T20:00:57.726Z,36.83
2022-12-16T20:03:43.280Z,38.03
2022-12-16T20:06:29.305Z,42.30
2022-12-16T20:09:22.113Z,41.22
2022-12-16T20:12:07.637Z,37.20
2022-12-16T20:14:53.430Z,46.30
2022-12-16T20:17:38.837Z,44.10
2022-12-16T20:20:24.646Z,36.92
2022-12-16T20:23:10.209Z,37.15
2022-12-16T20:25:56.406Z,34.10
2022-12-16T20:28:42.342Z,37.13
2022-12-16T20:31:27.866Z,39.53
2022-12-16T20:34:16.787Z,38.15
2022-12-16T20:37:03.564Z,39.38
2022-12-16T20:39:56.392Z,31.67
2022-12-16T20:42:43.938Z,39.47
2022-12-16T20:45:36.039Z,33.22
2022-12-16T20:48:21.982Z,41.08
2022-12-16T20:51:24.313Z,43.42
2022-12-16T20:54:12.075Z,44.83
2022-12-16T20:56:57.365Z,36.80
2022-12-16T20:59:42.846Z,38.58
2022-12-16T21:02:33.792Z,34.65
2022-12-16T21:05:20.771Z,39.80
2022-12-16T21:08:06.030Z,41.15
2022-12-16T21:10:51.765Z,37.50
2022-12-16T21:13:38.299Z,39.95
2022-12-16T21:16:25.119Z,33.42
2022-12-16T21:19:11.019Z,32.63
2022-12-16T21:21:56.786Z,30.00
2022-12-16T21:24:42.343Z,34.05
2022-12-16T21:27:27.723Z,33.10
2022-12-16T21:30:13.208Z,33.20
2022-12-16T21:32:58.789Z,33.88
2022-12-16T21:35:45.303Z,33.17
2022-12-16T21:38:31.580Z,40.83
2022-12-16T21:41:16.953Z,36.42
2022-12-16T21:44:02.261Z,38.25
2022-12-16T21:46:47.434Z,41.20
2022-12-16T21:49:32.726Z,41.60
2022-12-16T21:52:18.546Z,46.25
2022-12-16T21:55:08.897Z,42.10
2022-12-16T21:57:58.509Z,36.65
2022-12-16T22:00:43.834Z,41.80
2022-12-16T22:03:29.722Z,46.20
2022-12-16T22:06:18.296Z,42.22
2022-12-16T22:09:03.819Z,43.70
2022-12-16T22:11:49.523Z,43.42
2022-12-16T22:14:41.559Z,45.63
2022-12-16T22:17:27.086Z,45.38
2022-12-16T22:20:33.951Z,40.65
2022-12-16T22:26:18.013Z,40.05
2022-12-16T22:29:07.524Z,36.28
2022-12-16T22:32:06.648Z,46.83
2022-12-16T22:34:59.455Z,40.60
2022-12-16T22:37:49.345Z,46.03
2022-12-16T22:40:35.162Z,46.90
2022-12-16T22:43:24.614Z,45.67
2022-12-16T22:46:18.973Z,45.38
2022-12-16T22:49:10.647Z,44.63
2022-12-16T22:51:56.087Z,40.05
2022-12-16T22:54:42.414Z,37.85
2022-12-16T22:57:34.571Z,45.60
2022-12-16T23:00:20.550Z,42.38
2022-12-16T23:03:06.162Z,50.10
2022-12-16T23:05:51.885Z,44.42
2022-12-16T23:08:38.605Z,43.83
2022-12-16T23:11:23.932Z,41.80
2022-12-16T23:14:09.265Z,45.40
2022-12-16T23:16:57.545Z,44.95
2022-12-16T23:19:43.106Z,43.25
2022-12-16T23:22:28.677Z,39.83
2022-12-16T23:25:15.623Z,42.88
2022-12-16T23:28:01.193Z,43.58
2022-12-16T23:30:46.613Z,43.40
2022-12-16T23:33:32.178Z,42.08
2022-12-16T23:36:17.749Z,50.67
2022-12-16T23:39:03.180Z,46.55
2022-12-16T23:41:48.864Z,38.50
2022-12-16T23:44:34.167Z,44.90
2022-12-16T23:47:19.817Z,45.60
2022-12-16T23:50:05.667Z,49.00
2022-12-16T23:52:52.821Z,51.85
2022-12-16T23:55:41.778Z,49.20
2022-12-16T23:58:28.918Z,48.53
